sensor_id;sensor_type;location;lat;lon;timestamp;temperature;humidity
29855;DHT22;16733;48.738;9.106;2023-02-28T00:01:21;-1.20;93.70
29855;DHT22;16733;48.738;9.106;2023-02-28T00:03:47;-1.30;93.90
29855;DHT22;16733;48.738;9.106;2023-02-28T00:06:12;-1.30;93.90
29855;DHT22;16733;48.738;9.106;2023-02-28T00:08:39;-1.30;94.10
29855;DHT22;16733;48.738;9.106;2023-02-28T00:11:10;-1.30;94.40
29855;DHT22;16733;48.738;9.106;2023-02-28T00:13:38;-1.30;94.50
29855;DHT22;16733;48.738;9.106;2023-02-28T00:16:06;-1.40;94.70
29855;DHT22;16733;48.738;9.106;2023-02-28T00:18:32;-1.40;94.90
29855;DHT22;16733;48.738;9.106;2023-02-28T00:20:58;-1.40;95.10
29855;DHT22;16733;48.738;9.106;2023-02-28T00:23:25;-1.40;95.30
29855;DHT22;16733;48.738;9.106;2023-02-28T00:25:51;-1.40;95.50
29855;DHT22;16733;48.738;9.106;2023-02-28T00:28:16;-1.40;95.70
29855;DHT22;16733;48.738;9.106;2023-02-28T00:30:42;-1.40;96.00
29855;DHT22;16733;48.738;9.106;2023-02-28T00:33:08;-1.50;96.00
29855;DHT22;16733;48.738;9.106;2023-02-28T00:35:34;-1.50;96.10
29855;DHT22;16733;48.738;9.106;2023-02-28T00:37:59;-1.50;96.40
29855;DHT22;16733;48.738;9.106;2023-02-28T00:40:25;-1.50;96.60
29855;DHT22;16733;48.738;9.106;2023-02-28T00:42:50;-1.60;96.70
29855;DHT22;16733;48.738;9.106;2023-02-28T00:45:16;-1.60;97.00
29855;DHT22;16733;48.738;9.106;2023-02-28T00:47:41;-1.60;97.20
29855;DHT22;16733;48.738;9.106;2023-02-28T00:50:08;-1.60;97.40
29855;DHT22;16733;48.738;9.106;2023-02-28T00:52:34;-1.60;97.70
29855;DHT22;16733;48.738;9.106;2023-02-28T00:54:59;-1.70;97.80
29855;DHT22;16733;48.738;9.106;2023-02-28T00:57:25;-1.70;97.90
29855;DHT22;16733;48.738;9.106;2023-02-28T00:59:51;-1.70;97.80
29855;DHT22;16733;48.738;9.106;2023-02-28T01:02:20;-1.70;98.00
29855;DHT22;16733;48.738;9.106;2023-02-28T01:04:46;-1.70;98.20
29855;DHT22;16733;48.738;9.106;2023-02-28T01:07:12;-1.70;98.20
29855;DHT22;16733;48.738;9.106;2023-02-28T01:09:38;-1.80;98.30
29855;DHT22;16733;48.738;9.106;2023-02-28T01:12:03;-1.80;98.40
29855;DHT22;16733;48.738;9.106;2023-02-28T01:14:29;-1.80;98.50
29855;DHT22;16733;48.738;9.106;2023-02-28T01:16:55;-1.80;98.80
29855;DHT22;16733;48.738;9.106;2023-02-28T01:19:20;-1.80;98.80
29855;DHT22;16733;48.738;9.106;2023-02-28T01:21:46;-1.80;98.80
29855;DHT22;16733;48.738;9.106;2023-02-28T01:24:11;-1.80;98.70
29855;DHT22;16733;48.738;9.106;2023-02-28T01:26:37;-1.80;98.70
29855;DHT22;16733;48.738;9.106;2023-02-28T01:29:03;-1.80;98.60
29855;DHT22;16733;48.738;9.106;2023-02-28T01:31:28;-1.80;98.80
29855;DHT22;16733;48.738;9.106;2023-02-28T01:33:54;-1.80;98.80
29855;DHT22;16733;48.738;9.106;2023-02-28T01:36:22;-1.80;98.90
29855;DHT22;16733;48.738;9.106;2023-02-28T01:38:48;-1.90;99.00
29855;DHT22;16733;48.738;9.106;2023-02-28T01:41:21;-1.90;99.20
29855;DHT22;16733;48.738;9.106;2023-02-28T01:46:13;-1.90;99.20
29855;DHT22;16733;48.738;9.106;2023-02-28T01:48:50;-1.90;99.40
29855;DHT22;16733;48.738;9.106;2023-02-28T01:51:32;-2.00;99.60
29855;DHT22;16733;48.738;9.106;2023-02-28T01:54:09;-2.00;99.90
29855;DHT22;16733;48.738;9.106;2023-02-28T01:56:44;-1.90;99.90
29855;DHT22;16733;48.738;9.106;2023-02-28T01:59:13;-1.90;99.90
29855;DHT22;16733;48.738;9.106;2023-02-28T02:01:40;-2.00;99.90
29855;DHT22;16733;48.738;9.106;2023-02-28T02:04:05;-2.00;99.90
29855;DHT22;16733;48.738;9.106;2023-02-28T02:06:37;-2.00;99.90
29855;DHT22;16733;48.738;9.106;2023-02-28T02:09:03;-2.00;99.90
29855;DHT22;16733;48.738;9.106;2023-02-28T02:11:29;-2.00;99.90
29855;DHT22;16733;48.738;9.106;2023-02-28T02:36:49;-1.90;99.90
29855;DHT22;16733;48.738;9.106;2023-02-28T02:38:57;-1.90;99.90
29855;DHT22;16733;48.738;9.106;2023-02-28T02:41:34;-1.90;99.90
29855;DHT22;16733;48.738;9.106;2023-02-28T02:44:10;-1.90;99.90
29855;DHT22;16733;48.738;9.106;2023-02-28T02:46:41;-1.90;99.90
29855;DHT22;16733;48.738;9.106;2023-02-28T02:49:11;-1.90;99.90
29855;DHT22;16733;48.738;9.106;2023-02-28T02:51:38;-1.90;99.90
29855;DHT22;16733;48.738;9.106;2023-02-28T02:54:10;-1.90;99.90
29855;DHT22;16733;48.738;9.106;2023-02-28T02:56:39;-1.90;99.90
29855;DHT22;16733;48.738;9.106;2023-02-28T02:59:09;-1.90;99.90
29855;DHT22;16733;48.738;9.106;2023-02-28T03:01:37;-1.90;99.90
29855;DHT22;16733;48.738;9.106;2023-02-28T03:04:17;-1.80;99.90
29855;DHT22;16733;48.738;9.106;2023-02-28T03:06:43;-1.80;99.90
29855;DHT22;16733;48.738;9.106;2023-02-28T03:09:09;-1.80;99.90
29855;DHT22;16733;48.738;9.106;2023-02-28T03:11:36;-1.80;99.90
29855;DHT22;16733;48.738;9.106;2023-02-28T03:17:03;-1.80;99.90
29855;DHT22;16733;48.738;9.106;2023-02-28T03:25:07;-1.80;99.90
29855;DHT22;16733;48.738;9.106;2023-02-28T03:30:46;-1.70;99.90
29855;DHT22;16733;48.738;9.106;2023-02-28T03:33:17;-1.70;99.90
29855;DHT22;16733;48.738;9.106;2023-02-28T03:35:58;-1.70;99.90
29855;DHT22;16733;48.738;9.106;2023-02-28T03:38:46;-1.80;99.90
29855;DHT22;16733;48.738;9.106;2023-02-28T03:41:15;-1.80;99.90
29855;DHT22;16733;48.738;9.106;2023-02-28T03:43:45;-1.80;99.90
29855;DHT22;16733;48.738;9.106;2023-02-28T03:46:17;-1.80;99.90
29855;DHT22;16733;48.738;9.106;2023-02-28T03:49:01;-1.80;99.90
29855;DHT22;16733;48.738;9.106;2023-02-28T03:51:28;-1.80;99.90
29855;DHT22;16733;48.738;9.106;2023-02-28T03:53:58;-1.80;99.90
29855;DHT22;16733;48.738;9.106;2023-02-28T03:56:32;-1.80;99.90
29855;DHT22;16733;48.738;9.106;2023-02-28T03:59:00;-1.80;99.90
29855;DHT22;16733;48.738;9.106;2023-02-28T04:01:44;-1.70;99.90
29855;DHT22;16733;48.738;9.106;2023-02-28T04:04:11;-1.70;99.90
29855;DHT22;16733;48.738;9.106;2023-02-28T04:06:37;-1.70;99.90
29855;DHT22;16733;48.738;9.106;2023-02-28T04:09:05;-1.70;99.90
29855;DHT22;16733;48.738;9.106;2023-02-28T04:11:42;-1.70;99.90
29855;DHT22;16733;48.738;9.106;2023-02-28T04:14:09;-1.70;99.90
29855;DHT22;16733;48.738;9.106;2023-02-28T04:16:37;-1.70;99.90
29855;DHT22;16733;48.738;9.106;2023-02-28T04:19:04;-1.70;99.90
29855;DHT22;16733;48.738;9.106;2023-02-28T04:21:36;-1.70;99.90
29855;DHT22;16733;48.738;9.106;2023-02-28T04:24:03;-1.70;99.90
29855;DHT22;16733;48.738;9.106;2023-02-28T04:26:33;-1.70;99.90
29855;DHT22;16733;48.738;9.106;2023-02-28T04:29:00;-1.70;99.90
29855;DHT22;16733;48.738;9.106;2023-02-28T04:31:26;-1.70;99.90
29855;DHT22;16733;48.738;9.106;2023-02-28T04:33:51;-1.70;99.90
29855;DHT22;16733;48.738;9.106;2023-02-28T04:36:17;-1.70;99.90
29855;DHT22;16733;48.738;9.106;2023-02-28T04:38:44;-1.70;99.90
29855;DHT22;16733;48.738;9.106;2023-02-28T04:41:10;-1.70;99.90
29855;DHT22;16733;48.738;9.106;2023-02-28T04:43:36;-1.70;99.90
29855;DHT22;16733;48.738;9.106;2023-02-28T04:46:04;-1.70;99.90
29855;DHT22;16733;48.738;9.106;2023-02-28T04:48:32;-1.60;99.90
29855;DHT22;16733;48.738;9.106;2023-02-28T04:53:31;-1.60;99.90
29855;DHT22;16733;48.738;9.106;2023-02-28T04:55:57;-1.60;99.90
29855;DHT22;16733;48.738;9.106;2023-02-28T04:58:22;-1.60;99.90
29855;DHT22;16733;48.738;9.106;2023-02-28T05:00:54;-1.60;99.90
29855;DHT22;16733;48.738;9.106;2023-02-28T05:03:26;-1.60;99.90
29855;DHT22;16733;48.738;9.106;2023-02-28T05:05:51;-1.60;99.90
29855;DHT22;16733;48.738;9.106;2023-02-28T05:08:17;-1.60;99.90
29855;DHT22;16733;48.738;9.106;2023-02-28T05:10:42;-1.60;99.90
29855;DHT22;16733;48.738;9.106;2023-02-28T05:13:11;-1.60;99.90
29855;DHT22;16733;48.738;9.106;2023-02-28T05:15:37;-1.60;99.90
29855;DHT22;16733;48.738;9.106;2023-02-28T05:18:02;-1.60;99.90
29855;DHT22;16733;48.738;9.106;2023-02-28T05:20:28;-1.60;99.90
29855;DHT22;16733;48.738;9.106;2023-02-28T05:22:53;-1.60;99.90
29855;DHT22;16733;48.738;9.106;2023-02-28T05:25:20;-1.50;99.90
29855;DHT22;16733;48.738;9.106;2023-02-28T05:27:47;-1.60;99.90
29855;DHT22;16733;48.738;9.106;2023-02-28T05:30:13;-1.60;99.90
29855;DHT22;16733;48.738;9.106;2023-02-28T05:32:39;-1.60;99.90
29855;DHT22;16733;48.738;9.106;2023-02-28T05:35:09;-1.60;99.90
29855;DHT22;16733;48.738;9.106;2023-02-28T05:37:35;-1.50;99.90
29855;DHT22;16733;48.738;9.106;2023-02-28T05:40:01;-1.60;99.90
29855;DHT22;16733;48.738;9.106;2023-02-28T05:42:28;-1.60;99.90
29855;DHT22;16733;48.738;9.106;2023-02-28T05:44:53;-1.60;99.90
29855;DHT22;16733;48.738;9.106;2023-02-28T05:47:19;-1.60;99.90
29855;DHT22;16733;48.738;9.106;2023-02-28T05:49:45;-1.60;99.90
29855;DHT22;16733;48.738;9.106;2023-02-28T05:52:10;-1.60;99.90
29855;DHT22;16733;48.738;9.106;2023-02-28T05:54:36;-1.60;99.90
29855;DHT22;16733;48.738;9.106;2023-02-28T05:57:01;-1.60;99.90
29855;DHT22;16733;48.738;9.106;2023-02-28T05:59:27;-1.60;99.90
29855;DHT22;16733;48.738;9.106;2023-02-28T06:01:52;-1.60;99.90
29855;DHT22;16733;48.738;9.106;2023-02-28T06:04:20;-1.50;99.90
29855;DHT22;16733;48.738;9.106;2023-02-28T06:06:46;-1.50;99.90
29855;DHT22;16733;48.738;9.106;2023-02-28T06:09:12;-1.60;99.90
29855;DHT22;16733;48.738;9.106;2023-02-28T06:11:39;-1.60;99.90
29855;DHT22;16733;48.738;9.106;2023-02-28T06:14:04;-1.50;99.90
29855;DHT22;16733;48.738;9.106;2023-02-28T06:16:31;-1.50;99.90
29855;DHT22;16733;48.738;9.106;2023-02-28T06:18:59;-1.50;99.90
29855;DHT22;16733;48.738;9.106;2023-02-28T06:21:25;-1.50;99.90
29855;DHT22;16733;48.738;9.106;2023-02-28T06:23:52;-1.50;99.90
29855;DHT22;16733;48.738;9.106;2023-02-28T06:26:18;-1.50;99.90
29855;DHT22;16733;48.738;9.106;2023-02-28T06:28:44;-1.50;99.90
29855;DHT22;16733;48.738;9.106;2023-02-28T06:31:12;-1.50;99.90
29855;DHT22;16733;48.738;9.106;2023-02-28T06:33:38;-1.50;99.90
29855;DHT22;16733;48.738;9.106;2023-02-28T06:36:05;-1.50;99.90
29855;DHT22;16733;48.738;9.106;2023-02-28T06:38:31;-1.50;99.90
29855;DHT22;16733;48.738;9.106;2023-02-28T06:40:59;-1.50;99.90
29855;DHT22;16733;48.738;9.106;2023-02-28T06:43:27;-1.40;99.90
29855;DHT22;16733;48.738;9.106;2023-02-28T06:45:57;-1.40;99.90
29855;DHT22;16733;48.738;9.106;2023-02-28T06:48:23;-1.40;99.90
29855;DHT22;16733;48.738;9.106;2023-02-28T06:50:49;-1.30;99.90
29855;DHT22;16733;48.738;9.106;2023-02-28T06:53:15;-1.30;99.90
29855;DHT22;16733;48.738;9.106;2023-02-28T06:55:41;-1.30;99.90
29855;DHT22;16733;48.738;9.106;2023-02-28T06:58:07;-1.30;99.90
29855;DHT22;16733;48.738;9.106;2023-02-28T07:00:43;-1.30;99.90
29855;DHT22;16733;48.738;9.106;2023-02-28T07:03:10;-1.30;99.90
29855;DHT22;16733;48.738;9.106;2023-02-28T07:05:36;-1.30;99.90
29855;DHT22;16733;48.738;9.106;2023-02-28T07:08:03;-1.20;99.90
29855;DHT22;16733;48.738;9.106;2023-02-28T07:10:29;-1.30;99.90
29855;DHT22;16733;48.738;9.106;2023-02-28T07:12:55;-1.20;99.90
29855;DHT22;16733;48.738;9.106;2023-02-28T07:15:20;-1.20;99.90
29855;DHT22;16733;48.738;9.106;2023-02-28T07:17:46;-1.20;99.90
29855;DHT22;16733;48.738;9.106;2023-02-28T07:20:12;-1.20;99.90
29855;DHT22;16733;48.738;9.106;2023-02-28T07:22:38;-1.10;99.90
29855;DHT22;16733;48.738;9.106;2023-02-28T07:25:04;-1.10;99.90
29855;DHT22;16733;48.738;9.106;2023-02-28T07:27:30;-1.10;99.90
29855;DHT22;16733;48.738;9.106;2023-02-28T07:29:56;-1.10;99.90
29855;DHT22;16733;48.738;9.106;2023-02-28T07:32:22;-1.00;99.90
29855;DHT22;16733;48.738;9.106;2023-02-28T07:34:47;-1.00;99.90
29855;DHT22;16733;48.738;9.106;2023-02-28T07:37:14;-0.90;99.90
29855;DHT22;16733;48.738;9.106;2023-02-28T07:39:40;-0.90;99.90
29855;DHT22;16733;48.738;9.106;2023-02-28T07:42:09;-0.90;99.90
29855;DHT22;16733;48.738;9.106;2023-02-28T07:44:37;-0.90;99.90
29855;DHT22;16733;48.738;9.106;2023-02-28T07:47:07;-0.90;99.90
29855;DHT22;16733;48.738;9.106;2023-02-28T07:49:33;-0.90;99.90
29855;DHT22;16733;48.738;9.106;2023-02-28T07:51:59;-0.80;99.90
29855;DHT22;16733;48.738;9.106;2023-02-28T07:54:25;-0.80;99.90
29855;DHT22;16733;48.738;9.106;2023-02-28T07:56:50;-0.70;99.90
29855;DHT22;16733;48.738;9.106;2023-02-28T07:59:16;-0.80;99.90
29855;DHT22;16733;48.738;9.106;2023-02-28T08:01:41;-0.80;99.90
29855;DHT22;16733;48.738;9.106;2023-02-28T08:04:09;-0.80;99.90
29855;DHT22;16733;48.738;9.106;2023-02-28T08:06:35;-0.70;99.90
29855;DHT22;16733;48.738;9.106;2023-02-28T08:09:00;-0.70;99.90
29855;DHT22;16733;48.738;9.106;2023-02-28T08:11:26;-0.70;99.90
29855;DHT22;16733;48.738;9.106;2023-02-28T08:13:52;-0.60;99.90
29855;DHT22;16733;48.738;9.106;2023-02-28T08:16:17;-0.60;99.90
29855;DHT22;16733;48.738;9.106;2023-02-28T08:18:51;-0.60;99.90
29855;DHT22;16733;48.738;9.106;2023-02-28T08:21:17;-0.60;99.90
29855;DHT22;16733;48.738;9.106;2023-02-28T08:23:43;-0.60;99.90
29855;DHT22;16733;48.738;9.106;2023-02-28T08:26:09;-0.60;99.90
29855;DHT22;16733;48.738;9.106;2023-02-28T08:28:35;-0.60;99.90
29855;DHT22;16733;48.738;9.106;2023-02-28T08:31:01;-0.70;99.90
29855;DHT22;16733;48.738;9.106;2023-02-28T08:33:31;-0.60;99.90
29855;DHT22;16733;48.738;9.106;2023-02-28T08:35:57;-0.60;99.90
29855;DHT22;16733;48.738;9.106;2023-02-28T08:38:23;-0.60;99.90
29855;DHT22;16733;48.738;9.106;2023-02-28T08:40:49;-0.60;99.90
29855;DHT22;16733;48.738;9.106;2023-02-28T08:43:15;-0.60;99.90
29855;DHT22;16733;48.738;9.106;2023-02-28T08:45:40;-0.60;99.90
29855;DHT22;16733;48.738;9.106;2023-02-28T08:48:06;-0.50;99.90
29855;DHT22;16733;48.738;9.106;2023-02-28T08:50:32;-0.50;99.90
29855;DHT22;16733;48.738;9.106;2023-02-28T08:52:57;-0.50;99.90
29855;DHT22;16733;48.738;9.106;2023-02-28T08:55:23;-0.50;99.90
29855;DHT22;16733;48.738;9.106;2023-02-28T08:57:49;-0.50;99.90
29855;DHT22;16733;48.738;9.106;2023-02-28T09:00:15;-0.50;99.90
29855;DHT22;16733;48.738;9.106;2023-02-28T09:02:41;-0.60;99.40
29855;DHT22;16733;48.738;9.106;2023-02-28T09:05:08;-0.60;99.60
29855;DHT22;16733;48.738;9.106;2023-02-28T09:07:33;-0.50;99.90
29855;DHT22;16733;48.738;9.106;2023-02-28T09:09:59;-0.50;99.90
29855;DHT22;16733;48.738;9.106;2023-02-28T09:12:28;-0.50;99.90
29855;DHT22;16733;48.738;9.106;2023-02-28T09:14:57;-0.50;99.90
29855;DHT22;16733;48.738;9.106;2023-02-28T09:17:22;-0.50;99.90
29855;DHT22;16733;48.738;9.106;2023-02-28T09:19:51;-0.40;99.90
29855;DHT22;16733;48.738;9.106;2023-02-28T09:22:17;-0.40;99.90
29855;DHT22;16733;48.738;9.106;2023-02-28T09:24:42;-0.30;99.90
29855;DHT22;16733;48.738;9.106;2023-02-28T09:27:10;-0.30;99.90
29855;DHT22;16733;48.738;9.106;2023-02-28T09:29:35;-0.20;99.90
29855;DHT22;16733;48.738;9.106;2023-02-28T09:32:01;-0.30;99.90
29855;DHT22;16733;48.738;9.106;2023-02-28T09:34:27;-0.20;99.90
29855;DHT22;16733;48.738;9.106;2023-02-28T09:36:53;-0.20;99.90
29855;DHT22;16733;48.738;9.106;2023-02-28T09:39:21;-0.30;99.50
29855;DHT22;16733;48.738;9.106;2023-02-28T09:41:50;-0.30;99.10
29855;DHT22;16733;48.738;9.106;2023-02-28T09:46:49;-0.30;99.90
29855;DHT22;16733;48.738;9.106;2023-02-28T09:49:24;-0.20;99.90
29855;DHT22;16733;48.738;9.106;2023-02-28T09:52:06;-0.10;99.50
29855;DHT22;16733;48.738;9.106;2023-02-28T09:54:34;-0.20;99.20
29855;DHT22;16733;48.738;9.106;2023-02-28T09:57:13;-0.10;99.90
29855;DHT22;16733;48.738;9.106;2023-02-28T10:02:40;0.10;99.90
29855;DHT22;16733;48.738;9.106;2023-02-28T10:05:15;0.20;99.90
29855;DHT22;16733;48.738;9.106;2023-02-28T10:08:13;0.10;99.20
29855;DHT22;16733;48.738;9.106;2023-02-28T10:16:10;0.30;99.90
29855;DHT22;16733;48.738;9.106;2023-02-28T10:21:22;0.60;99.90
29855;DHT22;16733;48.738;9.106;2023-02-28T10:23:55;0.60;99.90
29855;DHT22;16733;48.738;9.106;2023-02-28T10:26:22;0.60;99.90
29855;DHT22;16733;48.738;9.106;2023-02-28T10:28:52;0.70;99.90
29855;DHT22;16733;48.738;9.106;2023-02-28T10:31:19;0.70;99.90
29855;DHT22;16733;48.738;9.106;2023-02-28T10:33:45;0.70;99.90
29855;DHT22;16733;48.738;9.106;2023-02-28T10:36:17;0.70;99.60
29855;DHT22;16733;48.738;9.106;2023-02-28T10:38:45;0.60;98.80
29855;DHT22;16733;48.738;9.106;2023-02-28T10:41:16;0.60;99.50
29855;DHT22;16733;48.738;9.106;2023-02-28T10:43:50;0.60;99.90
29855;DHT22;16733;48.738;9.106;2023-02-28T10:46:18;0.80;99.90
29855;DHT22;16733;48.738;9.106;2023-02-28T10:49:04;0.80;99.80
29855;DHT22;16733;48.738;9.106;2023-02-28T10:51:39;0.80;98.90
29855;DHT22;16733;48.738;9.106;2023-02-28T10:54:05;0.80;97.50
29855;DHT22;16733;48.738;9.106;2023-02-28T10:56:32;0.80;98.10
29855;DHT22;16733;48.738;9.106;2023-02-28T11:01:43;0.90;98.60
29855;DHT22;16733;48.738;9.106;2023-02-28T11:04:19;0.90;98.20
29855;DHT22;16733;48.738;9.106;2023-02-28T11:06:46;1.00;98.50
29855;DHT22;16733;48.738;9.106;2023-02-28T11:11:48;1.20;98.60
29855;DHT22;16733;48.738;9.106;2023-02-28T11:14:25;1.20;98.70
29855;DHT22;16733;48.738;9.106;2023-02-28T11:16:52;1.30;99.00
29855;DHT22;16733;48.738;9.106;2023-02-28T11:19:45;1.40;99.70
29855;DHT22;16733;48.738;9.106;2023-02-28T11:22:18;1.60;99.90
29855;DHT22;16733;48.738;9.106;2023-02-28T11:24:47;1.70;99.90
29855;DHT22;16733;48.738;9.106;2023-02-28T11:29:57;1.80;98.70
29855;DHT22;16733;48.738;9.106;2023-02-28T11:32:24;1.70;98.10
29855;DHT22;16733;48.738;9.106;2023-02-28T11:35:15;1.50;97.50
29855;DHT22;16733;48.738;9.106;2023-02-28T11:37:42;1.30;98.10
29855;DHT22;16733;48.738;9.106;2023-02-28T11:46:14;1.30;98.20
29855;DHT22;16733;48.738;9.106;2023-02-28T11:49:02;1.40;98.50
29855;DHT22;16733;48.738;9.106;2023-02-28T11:51:35;1.60;99.90
29855;DHT22;16733;48.738;9.106;2023-02-28T12:03:25;2.90;99.90
29855;DHT22;16733;48.738;9.106;2023-02-28T12:14:44;3.90;99.20
29855;DHT22;16733;48.738;9.106;2023-02-28T12:28:02;3.20;97.20
29855;DHT22;16733;48.738;9.106;2023-02-28T12:30:34;3.10;97.00
29855;DHT22;16733;48.738;9.106;2023-02-28T12:33:11;3.10;97.10
29855;DHT22;16733;48.738;9.106;2023-02-28T12:35:48;3.10;95.60
29855;DHT22;16733;48.738;9.106;2023-02-28T12:38:19;3.00;93.70
29855;DHT22;16733;48.738;9.106;2023-02-28T12:41:03;2.90;94.20
29855;DHT22;16733;48.738;9.106;2023-02-28T12:43:34;3.00;96.10
29855;DHT22;16733;48.738;9.106;2023-02-28T12:48:44;3.30;96.00
29855;DHT22;16733;48.738;9.106;2023-02-28T12:51:12;3.40;95.80
29855;DHT22;16733;48.738;9.106;2023-02-28T12:56:29;3.50;94.60
29855;DHT22;16733;48.738;9.106;2023-02-28T12:59:09;3.60;93.90
29855;DHT22;16733;48.738;9.106;2023-02-28T13:02:02;3.50;92.30
29855;DHT22;16733;48.738;9.106;2023-02-28T13:04:57;3.40;91.70
29855;DHT22;16733;48.738;9.106;2023-02-28T13:10:04;3.20;91.40
29855;DHT22;16733;48.738;9.106;2023-02-28T13:12:31;3.30;92.30
29855;DHT22;16733;48.738;9.106;2023-02-28T13:15:22;3.60;94.00
29855;DHT22;16733;48.738;9.106;2023-02-28T13:17:57;4.10;94.80
29855;DHT22;16733;48.738;9.106;2023-02-28T13:20:26;4.30;95.40
29855;DHT22;16733;48.738;9.106;2023-02-28T13:22:54;4.50;94.80
29855;DHT22;16733;48.738;9.106;2023-02-28T13:27:53;4.50;95.60
29855;DHT22;16733;48.738;9.106;2023-02-28T13:33:35;4.70;96.80
29855;DHT22;16733;48.738;9.106;2023-02-28T13:39:01;5.00;98.10
29855;DHT22;16733;48.738;9.106;2023-02-28T13:49:28;5.40;98.40
29855;DHT22;16733;48.738;9.106;2023-02-28T13:54:29;5.00;95.10
29855;DHT22;16733;48.738;9.106;2023-02-28T13:58:00;5.00;95.50
29855;DHT22;16733;48.738;9.106;2023-02-28T14:07:49;5.00;94.80
29855;DHT22;16733;48.738;9.106;2023-02-28T14:10:41;5.00;95.30
29855;DHT22;16733;48.738;9.106;2023-02-28T14:16:04;5.00;95.30
29855;DHT22;16733;48.738;9.106;2023-02-28T14:18:36;4.90;95.30
29855;DHT22;16733;48.738;9.106;2023-02-28T14:21:27;4.90;94.30
29855;DHT22;16733;48.738;9.106;2023-02-28T14:37:51;4.70;92.30
29855;DHT22;16733;48.738;9.106;2023-02-28T14:40:31;4.70;93.20
29855;DHT22;16733;48.738;9.106;2023-02-28T14:43:03;4.70;94.30
29855;DHT22;16733;48.738;9.106;2023-02-28T14:45:31;4.90;96.30
29855;DHT22;16733;48.738;9.106;2023-02-28T14:47:58;4.90;94.70
29855;DHT22;16733;48.738;9.106;2023-02-28T14:50:31;4.90;93.90
29855;DHT22;16733;48.738;9.106;2023-02-28T14:52:58;4.90;93.80
29855;DHT22;16733;48.738;9.106;2023-02-28T14:55:28;4.80;94.00
29855;DHT22;16733;48.738;9.106;2023-02-28T14:57:56;4.90;93.80
29855;DHT22;16733;48.738;9.106;2023-02-28T15:00:24;4.80;94.20
29855;DHT22;16733;48.738;9.106;2023-02-28T15:02:50;4.90;94.10
29855;DHT22;16733;48.738;9.106;2023-02-28T15:05:22;4.80;94.00
29855;DHT22;16733;48.738;9.106;2023-02-28T15:08:04;4.80;93.30
29855;DHT22;16733;48.738;9.106;2023-02-28T15:10:30;4.80;92.70
29855;DHT22;16733;48.738;9.106;2023-02-28T15:13:06;4.70;92.60
29855;DHT22;16733;48.738;9.106;2023-02-28T15:15:58;4.70;92.90
29855;DHT22;16733;48.738;9.106;2023-02-28T15:18:42;4.70;92.70
29855;DHT22;16733;48.738;9.106;2023-02-28T15:21:15;4.70;91.80
29855;DHT22;16733;48.738;9.106;2023-02-28T15:23:44;4.60;91.90
29855;DHT22;16733;48.738;9.106;2023-02-28T15:26:16;4.60;92.90
29855;DHT22;16733;48.738;9.106;2023-02-28T15:28:43;4.60;93.10
29855;DHT22;16733;48.738;9.106;2023-02-28T15:31:26;4.70;93.90
29855;DHT22;16733;48.738;9.106;2023-02-28T15:33:57;4.70;93.80
29855;DHT22;16733;48.738;9.106;2023-02-28T15:36:29;4.70;93.60
29855;DHT22;16733;48.738;9.106;2023-02-28T15:38:57;4.70;93.90
29855;DHT22;16733;48.738;9.106;2023-02-28T15:41:28;4.70;94.60
29855;DHT22;16733;48.738;9.106;2023-02-28T15:44:34;4.80;95.70
29855;DHT22;16733;48.738;9.106;2023-02-28T15:47:12;5.00;96.50
29855;DHT22;16733;48.738;9.106;2023-02-28T15:49:49;5.10;97.60
29855;DHT22;16733;48.738;9.106;2023-02-28T15:52:39;5.20;97.70
29855;DHT22;16733;48.738;9.106;2023-02-28T15:55:20;5.20;97.30
29855;DHT22;16733;48.738;9.106;2023-02-28T15:57:53;5.10;96.60
29855;DHT22;16733;48.738;9.106;2023-02-28T16:00:23;5.00;95.70
29855;DHT22;16733;48.738;9.106;2023-02-28T16:02:49;4.90;94.50
29855;DHT22;16733;48.738;9.106;2023-02-28T16:05:27;4.80;94.40
29855;DHT22;16733;48.738;9.106;2023-02-28T16:07:55;4.80;95.00
29855;DHT22;16733;48.738;9.106;2023-02-28T16:10:22;4.70;95.90
29855;DHT22;16733;48.738;9.106;2023-02-28T16:12:53;4.70;96.20
29855;DHT22;16733;48.738;9.106;2023-02-28T16:15:25;4.70;95.80
29855;DHT22;16733;48.738;9.106;2023-02-28T16:17:52;4.70;95.80
29855;DHT22;16733;48.738;9.106;2023-02-28T16:20:30;4.60;94.90
29855;DHT22;16733;48.738;9.106;2023-02-28T16:22:56;4.50;94.30
29855;DHT22;16733;48.738;9.106;2023-02-28T16:25:48;4.40;93.70
29855;DHT22;16733;48.738;9.106;2023-02-28T16:28:23;4.30;92.70
29855;DHT22;16733;48.738;9.106;2023-02-28T16:30:53;4.20;93.50
29855;DHT22;16733;48.738;9.106;2023-02-28T16:33:18;4.20;93.80
29855;DHT22;16733;48.738;9.106;2023-02-28T16:35:44;4.10;93.80
29855;DHT22;16733;48.738;9.106;2023-02-28T16:38:10;4.10;93.80
29855;DHT22;16733;48.738;9.106;2023-02-28T16:40:36;4.10;94.60
29855;DHT22;16733;48.738;9.106;2023-02-28T16:43:05;4.00;94.90
29855;DHT22;16733;48.738;9.106;2023-02-28T16:45:32;4.00;95.30
29855;DHT22;16733;48.738;9.106;2023-02-28T16:47:58;4.00;95.10
29855;DHT22;16733;48.738;9.106;2023-02-28T16:50:27;3.90;94.30
29855;DHT22;16733;48.738;9.106;2023-02-28T16:52:53;3.90;94.10
29855;DHT22;16733;48.738;9.106;2023-02-28T16:55:20;3.80;93.70
29855;DHT22;16733;48.738;9.106;2023-02-28T16:57:57;3.80;93.80
29855;DHT22;16733;48.738;9.106;2023-02-28T17:00:24;3.70;93.10
29855;DHT22;16733;48.738;9.106;2023-02-28T17:02:50;3.70;93.30
29855;DHT22;16733;48.738;9.106;2023-02-28T17:05:16;3.60;93.30
29855;DHT22;16733;48.738;9.106;2023-02-28T17:07:44;3.60;93.80
29855;DHT22;16733;48.738;9.106;2023-02-28T17:10:25;3.60;94.40
29855;DHT22;16733;48.738;9.106;2023-02-28T17:12:51;3.60;94.60
29855;DHT22;16733;48.738;9.106;2023-02-28T17:15:18;3.50;94.80
29855;DHT22;16733;48.738;9.106;2023-02-28T17:17:46;3.50;94.90
29855;DHT22;16733;48.738;9.106;2023-02-28T17:20:18;3.40;94.90
29855;DHT22;16733;48.738;9.106;2023-02-28T17:22:48;3.40;94.50
29855;DHT22;16733;48.738;9.106;2023-02-28T17:25:13;3.30;94.90
29855;DHT22;16733;48.738;9.106;2023-02-28T17:27:39;3.30;95.00
29855;DHT22;16733;48.738;9.106;2023-02-28T17:30:25;3.30;94.90
29855;DHT22;16733;48.738;9.106;2023-02-28T17:32:55;3.30;94.70
29855;DHT22;16733;48.738;9.106;2023-02-28T17:35:21;3.20;95.00
29855;DHT22;16733;48.738;9.106;2023-02-28T17:37:46;3.20;94.90
29855;DHT22;16733;48.738;9.106;2023-02-28T17:40:18;3.10;94.60
29855;DHT22;16733;48.738;9.106;2023-02-28T17:42:44;3.10;94.70
29855;DHT22;16733;48.738;9.106;2023-02-28T17:45:11;3.10;94.80
29855;DHT22;16733;48.738;9.106;2023-02-28T17:47:36;3.10;94.60
29855;DHT22;16733;48.738;9.106;2023-02-28T17:50:02;3.00;94.90
29855;DHT22;16733;48.738;9.106;2023-02-28T17:52:28;3.00;95.20
29855;DHT22;16733;48.738;9.106;2023-02-28T17:54:54;3.00;95.30
29855;DHT22;16733;48.738;9.106;2023-02-28T17:57:20;3.00;95.50
29855;DHT22;16733;48.738;9.106;2023-02-28T17:59:46;2.90;95.60
29855;DHT22;16733;48.738;9.106;2023-02-28T18:02:12;2.90;95.80
29855;DHT22;16733;48.738;9.106;2023-02-28T18:04:38;2.90;96.10
29855;DHT22;16733;48.738;9.106;2023-02-28T18:07:06;2.90;96.80
29855;DHT22;16733;48.738;9.106;2023-02-28T18:09:32;2.80;96.40
29855;DHT22;16733;48.738;9.106;2023-02-28T18:11:57;2.80;96.70
29855;DHT22;16733;48.738;9.106;2023-02-28T18:14:24;2.80;97.20
29855;DHT22;16733;48.738;9.106;2023-02-28T18:16:51;2.70;97.50
29855;DHT22;16733;48.738;9.106;2023-02-28T18:19:17;2.70;97.90